Ominato, ?minato Guard District (RJSO)

Name?minato Guard District
CityOminato
CountryJapan
ICAORJSO
IATA
Altitude2 m
CoordinatesGoogle Map
Live Air TrafficLiveATC.net
METARRJSO 171750Z VRB02KT 0500 R04///// FG VV001 09/09 Q1021 RMK A3015
2019-05-17 17:50:00 Wind: North (0°) 1.03 m/s - Visibility: 500 m - Weather: Fog - Temperature: 9 °C - Dew point: 9 °C - Humidity: 100% - Pressure: 1021 hPa

Sorry, no flights used the airport in this database.